Newtown, Indiana
Current Conditions -  °F | °C
As of 6:54 PM on Saturday 22 Nov 2014 (Local Time) from KLAF Reporting Station
Overcast Overcast  
Wind Chill: 12°   Ceiling: 3600
Heat Index: 12°   Visibility: 10mi
Dew Point:   Wind: 8mph
Humidity: 69%   Direction: 200°SSW
Pressure: 29.97"   Gusts: NA
Location:  40.2°N, 87.15°W
Report Text: KLAF 222354Z 20007KT 10SM OVC036 12/06 A2997 RMK AO2 SLP150 60000 T01170061 10128 20094 58002
Loading
Personal Weather Stations






























Interactive Weather Map New forecast layout! Learn more

10-Day Weather Forecast

Advertisements
Track Severe Weather on mobile